createdAt,value
2022-12-24T00:02:42.235Z,1.25
2022-12-24T00:05:44.070Z,1.28
2022-12-24T00:08:45.971Z,1.28
2022-12-24T00:11:47.565Z,1.27
2022-12-24T00:14:49.274Z,1.22
2022-12-24T00:17:51.168Z,1.19
2022-12-24T00:20:53.443Z,1.15
2022-12-24T00:23:55.142Z,1.13
2022-12-24T00:26:56.764Z,1.12
2022-12-24T00:29:58.408Z,1.10
2022-12-24T00:33:00.205Z,1.07
2022-12-24T00:36:01.833Z,1.04
2022-12-24T00:39:03.809Z,0.99
2022-12-24T00:42:05.445Z,0.99
2022-12-24T00:45:07.712Z,0.93
2022-12-24T00:48:09.422Z,0.75
2022-12-24T00:51:11.021Z,0.61
2022-12-24T00:54:14.059Z,0.55
2022-12-24T00:57:15.796Z,0.50
2022-12-24T01:00:18.147Z,0.45
2022-12-24T01:03:19.944Z,0.47
2022-12-24T01:06:22.076Z,0.54
2022-12-24T01:09:24.094Z,0.62
2022-12-24T01:12:25.952Z,0.67
2022-12-24T01:15:27.712Z,0.69
2022-12-24T01:18:29.637Z,0.70
2022-12-24T01:21:31.361Z,0.69
2022-12-24T01:24:33.019Z,0.68
2022-12-24T01:27:34.759Z,0.69
2022-12-24T01:30:36.469Z,0.73
2022-12-24T01:33:38.234Z,0.78
2022-12-24T01:36:39.833Z,0.84
2022-12-24T01:39:41.535Z,0.92
2022-12-24T01:43:05.502Z,0.97
2022-12-24T01:46:24.437Z,0.96
2022-12-24T01:49:26.281Z,1.06
2022-12-24T01:52:34.764Z,1.19
2022-12-24T01:55:36.912Z,1.35
2022-12-24T01:58:40.743Z,1.48
2022-12-24T02:01:42.689Z,1.61
2022-12-24T02:04:49.764Z,1.66
2022-12-24T02:07:51.673Z,1.67
2022-12-24T02:10:54.000Z,1.67
2022-12-24T02:13:59.428Z,1.66
2022-12-24T02:17:21.230Z,1.62
2022-12-24T02:20:42.023Z,1.57
2022-12-24T02:24:02.244Z,1.50
2022-12-24T02:27:24.230Z,1.46
2022-12-24T02:30:31.064Z,1.43
2022-12-24T02:33:37.678Z,1.41
2022-12-24T02:37:19.248Z,1.39
2022-12-24T02:40:27.859Z,1.27
2022-12-24T02:43:35.921Z,1.20
2022-12-24T02:46:37.780Z,1.15
2022-12-24T02:49:43.944Z,1.14
2022-12-24T02:52:47.298Z,1.15
2022-12-24T02:56:00.122Z,1.16
2022-12-24T02:59:41.770Z,1.20
2022-12-24T03:03:08.608Z,1.22
2022-12-24T03:06:38.483Z,1.25
2022-12-24T03:10:31.077Z,1.26
2022-12-24T03:13:32.848Z,1.26
2022-12-24T03:16:34.548Z,1.26
2022-12-24T03:19:36.735Z,1.26
2022-12-24T03:22:39.089Z,1.22
2022-12-24T03:25:43.157Z,1.21
2022-12-24T03:28:45.966Z,1.23
2022-12-24T03:31:50.550Z,1.24
2022-12-24T03:34:52.373Z,1.25
2022-12-24T03:37:53.995Z,1.25
2022-12-24T03:40:55.671Z,1.25
2022-12-24T03:43:57.275Z,1.26
2022-12-24T03:46:58.912Z,1.24
2022-12-24T03:50:00.793Z,1.21
2022-12-24T03:53:05.492Z,1.21
2022-12-24T03:56:07.421Z,1.20
2022-12-24T03:59:09.087Z,1.19
2022-12-24T04:02:10.951Z,1.16
2022-12-24T04:05:18.791Z,1.13
2022-12-24T04:08:20.599Z,1.09
2022-12-24T04:11:22.284Z,1.08
2022-12-24T04:14:24.033Z,1.07
2022-12-24T04:17:25.673Z,1.07
2022-12-24T04:20:27.309Z,1.08
2022-12-24T04:23:31.798Z,1.09
2022-12-24T04:26:33.462Z,1.11
2022-12-24T04:29:35.121Z,1.12
2022-12-24T04:32:36.854Z,1.14
2022-12-24T04:35:41.617Z,1.15
2022-12-24T04:38:44.102Z,1.16
2022-12-24T04:41:45.911Z,1.18
2022-12-24T04:44:47.693Z,1.20
2022-12-24T04:47:49.334Z,1.22
2022-12-24T04:50:50.958Z,1.23
2022-12-24T04:53:52.845Z,1.22
2022-12-24T04:56:54.542Z,1.21
2022-12-24T04:59:56.625Z,1.19
2022-12-24T05:02:58.190Z,1.15
2022-12-24T05:06:04.774Z,1.01
2022-12-24T05:09:06.509Z,0.89
2022-12-24T05:12:08.615Z,0.80
2022-12-24T05:15:10.193Z,0.71
2022-12-24T05:18:12.451Z,0.61
2022-12-24T05:21:19.583Z,0.60
2022-12-24T05:24:39.978Z,0.65
2022-12-24T05:27:47.419Z,0.75
2022-12-24T05:30:52.636Z,0.81
2022-12-24T05:33:55.020Z,0.83
2022-12-24T05:36:56.722Z,0.80
2022-12-24T05:39:58.453Z,0.76
2022-12-24T05:43:00.265Z,0.73
2022-12-24T05:46:02.530Z,0.72
2022-12-24T05:49:04.281Z,0.70
2022-12-24T05:52:05.892Z,0.63
2022-12-24T05:55:09.337Z,0.63
2022-12-24T05:58:11.077Z,0.70
2022-12-24T06:01:12.794Z,0.78
2022-12-24T06:04:14.609Z,0.84
2022-12-24T06:07:16.306Z,0.92
2022-12-24T06:10:18.063Z,0.99
2022-12-24T06:13:19.554Z,1.04
2022-12-24T06:16:22.801Z,1.08
2022-12-24T06:19:24.758Z,1.11
2022-12-24T06:22:26.306Z,1.13
2022-12-24T06:25:28.102Z,1.15
2022-12-24T06:28:34.246Z,1.23
2022-12-24T06:31:36.082Z,1.35
2022-12-24T06:34:37.775Z,1.50
2022-12-24T06:37:39.411Z,1.60
2022-12-24T06:40:42.939Z,1.63
2022-12-24T06:43:50.818Z,1.65
2022-12-24T06:46:52.570Z,1.68
2022-12-24T06:49:54.229Z,1.71
2022-12-24T06:52:56.052Z,1.66
2022-12-24T06:56:08.777Z,1.53
2022-12-24T06:59:10.604Z,1.34
2022-12-24T07:02:12.387Z,1.20
2022-12-24T07:05:14.748Z,1.11
2022-12-24T07:08:16.554Z,1.00
2022-12-24T07:11:18.339Z,1.04
2022-12-24T07:14:20.057Z,1.14
2022-12-24T07:17:21.948Z,1.21
2022-12-24T07:20:23.665Z,1.45
2022-12-24T07:23:25.830Z,1.75
2022-12-24T07:26:27.553Z,1.89
2022-12-24T07:29:29.230Z,2.06
2022-12-24T07:32:30.944Z,2.19
2022-12-24T07:35:32.622Z,2.33
2022-12-24T07:38:34.571Z,2.46
2022-12-24T07:41:41.500Z,2.54
2022-12-24T07:44:43.502Z,2.57
2022-12-24T07:47:45.113Z,2.60
2022-12-24T07:50:50.061Z,2.71
2022-12-24T07:53:51.790Z,2.79
2022-12-24T07:56:53.353Z,2.92
2022-12-24T07:59:55.047Z,3.02
2022-12-24T08:02:56.869Z,3.03
2022-12-24T08:05:58.829Z,3.05
2022-12-24T08:09:00.563Z,3.07
2022-12-24T08:12:05.248Z,3.10
2022-12-24T08:15:07.369Z,3.17
2022-12-24T08:18:10.432Z,3.33
2022-12-24T08:21:12.168Z,3.44
2022-12-24T08:24:14.041Z,3.59
2022-12-24T08:27:15.706Z,3.70
2022-12-24T08:30:20.995Z,3.79
2022-12-24T08:33:23.528Z,3.92
2022-12-24T08:36:25.241Z,4.03
2022-12-24T08:39:26.853Z,4.12
2022-12-24T08:42:28.558Z,4.19
2022-12-24T08:45:33.248Z,4.18
2022-12-24T08:48:39.813Z,4.20
2022-12-24T08:51:41.500Z,4.14
2022-12-24T08:54:43.128Z,4.09
2022-12-24T08:57:44.702Z,4.08
2022-12-24T09:00:46.417Z,4.13
2022-12-24T09:03:48.405Z,4.21
2022-12-24T09:06:50.269Z,4.30
2022-12-24T09:09:52.028Z,4.37
2022-12-24T09:12:53.705Z,4.43
2022-12-24T09:15:55.481Z,4.59
2022-12-24T09:18:58.451Z,4.68
2022-12-24T09:22:00.117Z,4.90
2022-12-24T09:25:01.829Z,5.29
2022-12-24T09:28:03.598Z,5.78
2022-12-24T09:31:06.101Z,6.18
2022-12-24T09:34:08.042Z,6.06
2022-12-24T09:37:09.868Z,5.99
2022-12-24T09:40:23.025Z,5.93
2022-12-24T09:43:28.245Z,5.90
2022-12-24T09:46:37.425Z,5.96
2022-12-24T09:49:42.565Z,6.08
2022-12-24T09:52:45.732Z,6.16
2022-12-24T09:55:52.860Z,6.20
2022-12-24T09:59:04.220Z,6.18
2022-12-24T10:02:11.155Z,6.15
2022-12-24T10:05:18.561Z,6.15
2022-12-24T10:08:32.010Z,6.18
2022-12-24T10:12:01.619Z,6.24
2022-12-24T10:15:36.749Z,6.29
2022-12-24T10:19:14.830Z,6.37
2022-12-24T10:22:34.396Z,6.44
2022-12-24T10:25:43.301Z,6.46
2022-12-24T10:28:54.063Z,6.37
2022-12-24T10:32:01.611Z,6.32
2022-12-24T10:35:21.222Z,6.22
2022-12-24T10:38:22.989Z,6.09
2022-12-24T10:41:28.383Z,5.92
2022-12-24T10:44:32.114Z,5.78
2022-12-24T10:47:35.056Z,5.68
2022-12-24T10:50:47.255Z,5.58
2022-12-24T10:53:53.060Z,5.52
2022-12-24T10:57:01.590Z,5.47
2022-12-24T11:00:06.369Z,5.44
2022-12-24T11:03:22.427Z,5.53
2022-12-24T11:06:24.174Z,5.71
2022-12-24T11:09:29.263Z,5.83
2022-12-24T11:12:37.943Z,5.91
2022-12-24T11:15:39.746Z,5.93
2022-12-24T11:18:51.178Z,5.94
2022-12-24T11:22:03.556Z,6.02
2022-12-24T11:25:20.289Z,6.14
2022-12-24T11:28:26.268Z,6.40
2022-12-24T11:31:29.474Z,6.63
2022-12-24T11:34:33.064Z,6.78
2022-12-24T11:37:35.003Z,6.74
2022-12-24T11:40:39.144Z,6.78
2022-12-24T11:43:46.808Z,6.75
2022-12-24T11:46:52.419Z,6.70
2022-12-24T11:49:59.276Z,6.72
2022-12-24T11:53:21.089Z,6.78
2022-12-24T11:56:32.649Z,6.80
2022-12-24T11:59:40.950Z,6.75
2022-12-24T12:02:44.002Z,6.73
2022-12-24T12:05:45.905Z,6.69
2022-12-24T12:08:48.155Z,6.59
2022-12-24T12:12:02.223Z,6.53
2022-12-24T12:15:25.558Z,6.56
2022-12-24T12:18:35.881Z,6.51
2022-12-24T12:21:41.695Z,6.47
2022-12-24T12:24:48.365Z,6.52
2022-12-24T12:27:53.220Z,6.56
2022-12-24T12:31:02.849Z,6.59
2022-12-24T12:34:13.963Z,6.62
2022-12-24T12:37:22.095Z,6.63
2022-12-24T12:40:34.886Z,6.53
2022-12-24T12:44:14.982Z,6.42
2022-12-24T12:47:35.836Z,6.29
2022-12-24T12:50:46.333Z,6.25
2022-12-24T12:54:07.093Z,6.22
2022-12-24T12:57:12.198Z,6.23
2022-12-24T13:00:18.167Z,6.30
2022-12-24T13:03:48.166Z,6.29
2022-12-24T13:07:34.247Z,6.22
2022-12-24T13:10:53.233Z,6.08
2022-12-24T13:14:16.798Z,5.96
2022-12-24T13:17:18.389Z,5.90
2022-12-24T13:20:20.020Z,5.81
2022-12-24T13:23:26.661Z,5.76
2022-12-24T13:26:28.325Z,5.79
2022-12-24T13:29:40.863Z,5.77
2022-12-24T13:32:52.639Z,5.73
2022-12-24T13:35:58.414Z,5.72
2022-12-24T13:39:00.271Z,5.71
2022-12-24T13:42:01.896Z,5.73
2022-12-24T13:45:22.800Z,5.71
2022-12-24T13:48:33.355Z,5.63
2022-12-24T13:51:35.053Z,5.55
2022-12-24T13:54:43.277Z,5.52
2022-12-24T13:57:53.408Z,5.48
2022-12-24T14:01:01.168Z,5.44
2022-12-24T14:04:04.415Z,5.35
2022-12-24T14:07:06.276Z,5.30
2022-12-24T14:10:20.767Z,5.29
2022-12-24T14:13:38.036Z,5.22
2022-12-24T14:16:46.178Z,5.19
2022-12-24T14:19:52.052Z,5.15
2022-12-24T14:22:54.057Z,5.09
2022-12-24T14:25:57.499Z,5.07
2022-12-24T14:29:36.587Z,5.04
2022-12-24T14:32:40.399Z,4.99
2022-12-24T14:35:42.249Z,4.94
2022-12-24T14:38:44.815Z,4.94
2022-12-24T14:41:53.719Z,4.89
2022-12-24T14:45:29.711Z,4.84
2022-12-24T14:48:45.963Z,4.78
2022-12-24T14:52:00.143Z,4.77
2022-12-24T14:55:32.112Z,4.80
2022-12-24T14:58:33.984Z,4.77
2022-12-24T15:01:35.672Z,4.75
2022-12-24T15:04:37.673Z,4.72
2022-12-24T15:07:47.682Z,4.66
2022-12-24T15:10:55.247Z,4.57
2022-12-24T15:13:59.375Z,4.41
2022-12-24T15:17:04.713Z,4.29
2022-12-24T15:20:07.716Z,4.22
2022-12-24T15:23:19.061Z,4.19
2022-12-24T15:26:27.362Z,4.23
2022-12-24T15:29:32.416Z,4.22
2022-12-24T15:32:34.392Z,4.23
2022-12-24T15:35:52.319Z,4.21
2022-12-24T15:38:55.159Z,4.20
2022-12-24T15:42:15.430Z,4.23
2022-12-24T15:45:28.054Z,4.24
2022-12-24T15:48:31.570Z,4.27
2022-12-24T15:51:38.437Z,4.32
2022-12-24T15:54:52.145Z,4.32
2022-12-24T15:57:57.448Z,4.27
2022-12-24T16:01:17.703Z,4.22
2022-12-24T16:04:25.450Z,4.20
2022-12-24T16:07:47.361Z,4.17
2022-12-24T16:10:50.014Z,4.11
2022-12-24T16:13:57.695Z,4.13
2022-12-24T16:16:59.485Z,4.16
2022-12-24T16:20:06.876Z,4.18
2022-12-24T16:23:17.652Z,4.20
2022-12-24T16:26:19.688Z,4.35
2022-12-24T16:29:22.473Z,4.42
2022-12-24T16:32:34.818Z,4.48
2022-12-24T16:35:38.597Z,4.52
2022-12-24T16:38:59.132Z,4.52
2022-12-24T16:42:21.787Z,4.52
2022-12-24T16:45:23.545Z,4.54
2022-12-24T16:48:25.676Z,4.54
2022-12-24T16:51:27.295Z,4.54
2022-12-24T16:54:30.171Z,4.55
2022-12-24T16:57:33.334Z,4.56
2022-12-24T17:00:36.310Z,4.64
2022-12-24T17:03:38.109Z,4.69
2022-12-24T17:06:39.958Z,4.73
2022-12-24T17:09:42.362Z,4.77
2022-12-24T17:12:44.222Z,4.80
2022-12-24T17:15:45.991Z,4.83
2022-12-24T17:18:48.768Z,4.87
2022-12-24T17:21:50.510Z,4.91
2022-12-24T17:24:52.776Z,4.92
2022-12-24T17:27:54.697Z,4.92
2022-12-24T17:30:58.811Z,4.91
2022-12-24T17:34:00.679Z,4.88
2022-12-24T17:37:02.462Z,4.84
2022-12-24T17:40:04.699Z,4.83
2022-12-24T17:43:06.474Z,4.83
2022-12-24T17:46:16.574Z,4.82
2022-12-24T17:49:18.244Z,4.76
2022-12-24T17:52:19.999Z,4.73
2022-12-24T17:55:23.770Z,4.66
2022-12-24T17:58:25.496Z,4.57
2022-12-24T18:01:30.534Z,4.52
2022-12-24T18:04:32.540Z,4.55
2022-12-24T18:07:34.183Z,4.57
2022-12-24T18:10:35.722Z,4.61
2022-12-24T18:13:37.564Z,4.63
2022-12-24T18:16:40.511Z,4.67
2022-12-24T18:19:42.388Z,4.70
2022-12-24T18:22:43.977Z,4.75
2022-12-24T18:25:45.659Z,4.77
2022-12-24T18:28:47.517Z,4.74
2022-12-24T18:31:49.399Z,4.73
2022-12-24T18:34:51.778Z,4.74
2022-12-24T18:37:53.601Z,4.68
2022-12-24T18:40:55.315Z,4.65
2022-12-24T18:43:56.990Z,4.61
2022-12-24T18:46:58.900Z,4.60
2022-12-24T18:50:00.656Z,4.59
2022-12-24T18:53:02.935Z,4.59
2022-12-24T18:56:05.485Z,4.58
2022-12-24T18:59:07.212Z,4.60
2022-12-24T19:02:09.502Z,4.58
2022-12-24T19:05:11.771Z,4.51
2022-12-24T19:08:47.240Z,4.45
2022-12-24T19:11:36.918Z,4.40
2022-12-24T19:14:39.538Z,4.35
2022-12-24T19:17:41.837Z,4.32
2022-12-24T19:20:43.712Z,4.28
2022-12-24T19:23:47.141Z,4.24
2022-12-24T19:26:49.058Z,4.22
2022-12-24T19:29:50.740Z,4.21
2022-12-24T19:32:52.426Z,4.18
2022-12-24T19:35:54.128Z,4.14
2022-12-24T19:38:57.233Z,4.18
2022-12-24T19:42:00.257Z,4.22
2022-12-24T19:45:01.990Z,4.26
2022-12-24T19:48:03.863Z,4.23
2022-12-24T19:51:07.823Z,4.21
2022-12-24T19:54:18.681Z,4.22
2022-12-24T19:57:21.171Z,4.27
2022-12-24T20:00:23.013Z,4.26
2022-12-24T20:03:24.808Z,4.23
2022-12-24T20:06:28.294Z,4.17
2022-12-24T20:09:32.769Z,4.05
2022-12-24T20:12:34.491Z,3.96
2022-12-24T20:15:42.866Z,3.93
2022-12-24T20:18:45.323Z,3.90
2022-12-24T20:21:47.089Z,3.87
2022-12-24T20:24:48.807Z,3.85
2022-12-24T20:27:50.464Z,3.82
2022-12-24T20:30:52.292Z,3.79
2022-12-24T20:33:54.654Z,3.76
2022-12-24T20:36:56.354Z,3.71
2022-12-24T20:39:58.163Z,3.69
2022-12-24T20:42:59.700Z,3.67
2022-12-24T20:46:02.264Z,3.67
2022-12-24T20:49:05.435Z,3.70
2022-12-24T20:52:07.883Z,3.71
2022-12-24T20:55:09.686Z,3.67
2022-12-24T20:58:13.317Z,3.59
2022-12-24T21:01:18.590Z,3.54
2022-12-24T21:04:20.525Z,3.48
2022-12-24T21:07:22.208Z,3.42
2022-12-24T21:10:26.763Z,3.43
2022-12-24T21:13:32.432Z,3.38
2022-12-24T21:16:34.533Z,3.37
2022-12-24T21:19:36.342Z,3.40
2022-12-24T21:22:38.768Z,3.42
2022-12-24T21:25:40.579Z,3.47
2022-12-24T21:28:43.981Z,3.54
2022-12-24T21:31:46.354Z,3.60
2022-12-24T21:34:48.227Z,3.71
2022-12-24T21:37:49.862Z,3.74
2022-12-24T21:41:01.492Z,3.72
2022-12-24T21:44:03.182Z,3.71
2022-12-24T21:47:04.883Z,3.70
2022-12-24T21:50:31.611Z,3.72
2022-12-24T21:53:52.876Z,3.79
2022-12-24T21:57:22.627Z,3.83
2022-12-24T22:00:30.749Z,3.83
2022-12-24T22:03:32.510Z,3.84
2022-12-24T22:06:53.107Z,3.85
2022-12-24T22:10:13.591Z,3.85
2022-12-24T22:13:15.389Z,3.84
2022-12-24T22:16:17.214Z,3.89
2022-12-24T22:19:19.115Z,3.89
2022-12-24T22:22:21.842Z,3.95
2022-12-24T22:25:23.501Z,3.97
2022-12-24T22:28:25.093Z,3.95
2022-12-24T22:31:27.457Z,3.93
2022-12-24T22:34:29.225Z,3.90
2022-12-24T22:37:30.772Z,3.87
2022-12-24T22:40:32.684Z,3.86
2022-12-24T22:43:34.679Z,3.77
2022-12-24T22:46:36.556Z,3.75
2022-12-24T22:49:38.399Z,3.70
2022-12-24T22:52:40.078Z,3.66
2022-12-24T22:55:41.766Z,3.62
2022-12-24T22:58:43.699Z,3.58
2022-12-24T23:01:46.794Z,3.56
2022-12-24T23:04:48.813Z,3.52
2022-12-24T23:07:50.487Z,3.51
2022-12-24T23:10:53.215Z,3.49
2022-12-24T23:14:14.185Z,3.50
2022-12-24T23:17:16.528Z,3.52
2022-12-24T23:20:18.290Z,3.59
2022-12-24T23:23:20.025Z,3.67
2022-12-24T23:26:22.309Z,3.72
2022-12-24T23:29:24.250Z,3.74
2022-12-24T23:32:25.942Z,3.75
2022-12-24T23:35:27.467Z,3.77
2022-12-24T23:38:29.341Z,3.82
2022-12-24T23:41:30.954Z,3.86
2022-12-24T23:44:33.027Z,3.88
2022-12-24T23:47:34.855Z,3.87
2022-12-24T23:50:37.024Z,3.88
2022-12-24T23:53:39.327Z,3.85
2022-12-24T23:56:40.932Z,3.79
2022-12-24T23:59:42.687Z,3.76
